sensor_id;sensor_type;location;lat;lon;timestamp;P1;durP1;ratioP1;P2;durP2;ratioP2
39082;SDS011;24834;44.444;26.098;2024-03-08T05:16:54;60.60;;;48.00;;
39082;SDS011;24834;44.444;26.098;2024-03-08T05:22:57;60.75;;;49.75;;
39082;SDS011;24834;44.444;26.098;2024-03-08T05:29:02;63.50;;;51.00;;
39082;SDS011;24834;44.444;26.098;2024-03-08T05:35:05;59.00;;;42.75;;
39082;SDS011;24834;44.444;26.098;2024-03-08T05:41:07;68.00;;;52.00;;
39082;SDS011;24834;44.444;26.098;2024-03-08T05:47:09;58.50;;;44.75;;
39082;SDS011;24834;44.444;26.098;2024-03-08T05:53:12;56.00;;;46.75;;
39082;SDS011;24834;44.444;26.098;2024-03-08T05:59:14;55.75;;;44.75;;
39082;SDS011;24834;44.444;26.098;2024-03-08T06:05:17;55.50;;;46.25;;
39082;SDS011;24834;44.444;26.098;2024-03-08T06:11:19;56.25;;;48.25;;
39082;SDS011;24834;44.444;26.098;2024-03-08T06:17:22;58.75;;;48.50;;
39082;SDS011;24834;44.444;26.098;2024-03-08T06:23:27;59.75;;;50.75;;
39082;SDS011;24834;44.444;26.098;2024-03-08T06:29:30;61.75;;;50.50;;
39082;SDS011;24834;44.444;26.098;2024-03-08T06:35:33;56.50;;;47.00;;
39082;SDS011;24834;44.444;26.098;2024-03-08T06:41:42;37.00;;;33.00;;
39082;SDS011;24834;44.444;26.098;2024-03-08T06:47:46;44.50;;;37.75;;
39082;SDS011;24834;44.444;26.098;2024-03-08T06:53:49;60.00;;;48.00;;
39082;SDS011;24834;44.444;26.098;2024-03-08T06:59:52;54.50;;;45.50;;
39082;SDS011;24834;44.444;26.098;2024-03-08T07:05:55;56.25;;;48.25;;
39082;SDS011;24834;44.444;26.098;2024-03-08T07:11:59;63.00;;;50.50;;
39082;SDS011;24834;44.444;26.098;2024-03-08T07:18:03;57.00;;;46.75;;
39082;SDS011;24834;44.444;26.098;2024-03-08T07:24:05;60.75;;;47.75;;
39082;SDS011;24834;44.444;26.098;2024-03-08T07:30:28;54.00;;;46.25;;
39082;SDS011;24834;44.444;26.098;2024-03-08T07:36:55;63.00;;;50.75;;
39082;SDS011;24834;44.444;26.098;2024-03-08T07:42:58;71.50;;;50.50;;
39082;SDS011;24834;44.444;26.098;2024-03-08T07:49:00;57.25;;;46.00;;
39082;SDS011;24834;44.444;26.098;2024-03-08T07:55:02;57.00;;;45.75;;
39082;SDS011;24834;44.444;26.098;2024-03-08T08:01:07;48.75;;;42.75;;
39082;SDS011;24834;44.444;26.098;2024-03-08T08:07:10;63.00;;;49.75;;
39082;SDS011;24834;44.444;26.098;2024-03-08T08:13:13;55.25;;;46.25;;
39082;SDS011;24834;44.444;26.098;2024-03-08T08:19:15;56.00;;;46.75;;
39082;SDS011;24834;44.444;26.098;2024-03-08T08:25:17;62.75;;;48.00;;
39082;SDS011;24834;44.444;26.098;2024-03-08T08:31:22;62.75;;;50.75;;
39082;SDS011;24834;44.444;26.098;2024-03-08T08:37:24;52.25;;;42.50;;
39082;SDS011;24834;44.444;26.098;2024-03-08T08:43:27;59.50;;;47.75;;
39082;SDS011;24834;44.444;26.098;2024-03-08T08:49:29;59.00;;;47.00;;
39082;SDS011;24834;44.444;26.098;2024-03-08T08:55:32;65.00;;;52.00;;
39082;SDS011;24834;44.444;26.098;2024-03-08T09:01:37;54.25;;;45.50;;
39082;SDS011;24834;44.444;26.098;2024-03-08T09:07:41;62.25;;;49.50;;
39082;SDS011;24834;44.444;26.098;2024-03-08T09:13:49;57.00;;;46.50;;
39082;SDS011;24834;44.444;26.098;2024-03-08T09:19:55;79.25;;;61.00;;
39082;SDS011;24834;44.444;26.098;2024-03-08T09:25:57;56.50;;;44.00;;
39082;SDS011;24834;44.444;26.098;2024-03-08T09:31:59;65.00;;;49.75;;
39082;SDS011;24834;44.444;26.098;2024-03-08T09:38:03;56.25;;;46.00;;
39082;SDS011;24834;44.444;26.098;2024-03-08T09:44:06;57.50;;;43.75;;
39082;SDS011;24834;44.444;26.098;2024-03-08T09:50:08;55.75;;;46.25;;
39082;SDS011;24834;44.444;26.098;2024-03-08T09:56:11;52.50;;;44.00;;
39082;SDS011;24834;44.444;26.098;2024-03-08T10:02:15;53.00;;;43.00;;
39082;SDS011;24834;44.444;26.098;2024-03-08T10:08:18;50.25;;;42.75;;
39082;SDS011;24834;44.444;26.098;2024-03-08T10:14:22;61.25;;;47.25;;
39082;SDS011;24834;44.444;26.098;2024-03-08T10:20:24;59.25;;;43.25;;
39082;SDS011;24834;44.444;26.098;2024-03-08T10:26:28;48.00;;;42.00;;
39082;SDS011;24834;44.444;26.098;2024-03-08T10:32:30;58.75;;;48.50;;
39082;SDS011;24834;44.444;26.098;2024-03-08T10:38:32;55.50;;;44.00;;
39082;SDS011;24834;44.444;26.098;2024-03-08T10:44:43;48.25;;;39.50;;
39082;SDS011;24834;44.444;26.098;2024-03-08T10:50:50;49.00;;;42.75;;
39082;SDS011;24834;44.444;26.098;2024-03-08T10:56:54;47.75;;;41.75;;
39082;SDS011;24834;44.444;26.098;2024-03-08T11:02:56;59.75;;;46.50;;
39082;SDS011;24834;44.444;26.098;2024-03-08T11:08:59;51.50;;;45.50;;
39082;SDS011;24834;44.444;26.098;2024-03-08T11:15:02;54.75;;;44.00;;
39082;SDS011;24834;44.444;26.098;2024-03-08T11:21:15;61.25;;;50.25;;
39082;SDS011;24834;44.444;26.098;2024-03-08T11:27:19;51.00;;;42.25;;
39082;SDS011;24834;44.444;26.098;2024-03-08T11:33:28;53.00;;;41.00;;
39082;SDS011;24834;44.444;26.098;2024-03-08T11:39:32;48.75;;;39.25;;
39082;SDS011;24834;44.444;26.098;2024-03-08T11:45:34;35.50;;;30.75;;
39082;SDS011;24834;44.444;26.098;2024-03-08T11:51:41;50.50;;;40.50;;
39082;SDS011;24834;44.444;26.098;2024-03-08T11:57:43;47.00;;;40.00;;
39082;SDS011;24834;44.444;26.098;2024-03-08T12:03:52;57.00;;;45.25;;
39082;SDS011;24834;44.444;26.098;2024-03-08T12:10:17;45.00;;;40.67;;
39082;SDS011;24834;44.444;26.098;2024-03-08T12:16:24;43.25;;;38.50;;
39082;SDS011;24834;44.444;26.098;2024-03-08T12:22:26;47.25;;;39.75;;
39082;SDS011;24834;44.444;26.098;2024-03-08T12:28:29;40.75;;;36.50;;
39082;SDS011;24834;44.444;26.098;2024-03-08T12:34:31;38.50;;;37.50;;
39082;SDS011;24834;44.444;26.098;2024-03-08T12:40:33;43.25;;;40.25;;
39082;SDS011;24834;44.444;26.098;2024-03-08T12:46:43;43.75;;;37.25;;
39082;SDS011;24834;44.444;26.098;2024-03-08T12:52:47;39.75;;;33.25;;
39082;SDS011;24834;44.444;26.098;2024-03-08T12:58:54;45.75;;;40.25;;
39082;SDS011;24834;44.444;26.098;2024-03-08T13:04:58;40.50;;;37.50;;
39082;SDS011;24834;44.444;26.098;2024-03-08T13:11:01;50.00;;;40.00;;
39082;SDS011;24834;44.444;26.098;2024-03-08T13:17:04;42.75;;;37.00;;
39082;SDS011;24834;44.444;26.098;2024-03-08T13:23:06;45.50;;;39.00;;
39082;SDS011;24834;44.444;26.098;2024-03-08T13:29:10;37.75;;;35.75;;
39082;SDS011;24834;44.444;26.098;2024-03-08T13:35:13;49.50;;;40.50;;
39082;SDS011;24834;44.444;26.098;2024-03-08T13:41:16;40.50;;;37.00;;
39082;SDS011;24834;44.444;26.098;2024-03-08T13:47:19;39.25;;;36.25;;
39082;SDS011;24834;44.444;26.098;2024-03-08T13:53:21;41.50;;;36.75;;
39082;SDS011;24834;44.444;26.098;2024-03-08T13:59:25;43.75;;;37.50;;
39082;SDS011;24834;44.444;26.098;2024-03-08T14:05:31;46.25;;;40.75;;
39082;SDS011;24834;44.444;26.098;2024-03-08T14:11:37;38.00;;;35.50;;
39082;SDS011;24834;44.444;26.098;2024-03-08T14:17:40;48.75;;;39.75;;
39082;SDS011;24834;44.444;26.098;2024-03-08T14:23:42;43.75;;;38.75;;
39082;SDS011;24834;44.444;26.098;2024-03-08T14:29:45;55.50;;;43.25;;
39082;SDS011;24834;44.444;26.098;2024-03-08T14:35:48;41.75;;;38.25;;
39082;SDS011;24834;44.444;26.098;2024-03-08T14:41:51;48.50;;;38.50;;
39082;SDS011;24834;44.444;26.098;2024-03-08T14:47:56;48.00;;;39.25;;
39082;SDS011;24834;44.444;26.098;2024-03-08T14:53:59;44.75;;;38.75;;
39082;SDS011;24834;44.444;26.098;2024-03-08T15:00:01;46.25;;;40.50;;
39082;SDS011;24834;44.444;26.098;2024-03-08T15:06:09;45.75;;;36.50;;
39082;SDS011;24834;44.444;26.098;2024-03-08T15:12:11;47.50;;;38.75;;
39082;SDS011;24834;44.444;26.098;2024-03-08T15:18:14;43.25;;;35.25;;
39082;SDS011;24834;44.444;26.098;2024-03-08T15:24:17;50.75;;;39.00;;
39082;SDS011;24834;44.444;26.098;2024-03-08T15:30:24;53.25;;;41.25;;
39082;SDS011;24834;44.444;26.098;2024-03-08T15:36:30;47.00;;;41.75;;
39082;SDS011;24834;44.444;26.098;2024-03-08T15:42:35;52.50;;;44.00;;
39082;SDS011;24834;44.444;26.098;2024-03-08T15:48:38;50.50;;;40.75;;
39082;SDS011;24834;44.444;26.098;2024-03-08T15:54:43;58.00;;;47.25;;
39082;SDS011;24834;44.444;26.098;2024-03-08T16:00:46;62.75;;;48.75;;
39082;SDS011;24834;44.444;26.098;2024-03-08T16:06:49;51.50;;;41.00;;
39082;SDS011;24834;44.444;26.098;2024-03-08T16:12:51;53.75;;;44.25;;
39082;SDS011;24834;44.444;26.098;2024-03-08T16:18:54;52.25;;;42.75;;
39082;SDS011;24834;44.444;26.098;2024-03-08T16:24:56;53.00;;;42.25;;
39082;SDS011;24834;44.444;26.098;2024-03-08T16:30:59;52.25;;;44.75;;
39082;SDS011;24834;44.444;26.098;2024-03-08T16:37:02;59.00;;;49.75;;
39082;SDS011;24834;44.444;26.098;2024-03-08T16:43:05;63.00;;;50.00;;
39082;SDS011;24834;44.444;26.098;2024-03-08T16:49:07;65.75;;;53.00;;
39082;SDS011;24834;44.444;26.098;2024-03-08T16:55:10;61.50;;;50.50;;
39082;SDS011;24834;44.444;26.098;2024-03-08T17:01:16;60.25;;;47.25;;
39082;SDS011;24834;44.444;26.098;2024-03-08T17:07:20;61.75;;;49.50;;
39082;SDS011;24834;44.444;26.098;2024-03-08T17:13:24;60.75;;;48.00;;
39082;SDS011;24834;44.444;26.098;2024-03-08T17:19:26;63.00;;;50.75;;
39082;SDS011;24834;44.444;26.098;2024-03-08T17:25:31;66.25;;;53.75;;
39082;SDS011;24834;44.444;26.098;2024-03-08T17:31:33;64.00;;;52.25;;
39082;SDS011;24834;44.444;26.098;2024-03-08T17:37:37;71.75;;;56.50;;
39082;SDS011;24834;44.444;26.098;2024-03-08T17:43:40;67.25;;;52.75;;
39082;SDS011;24834;44.444;26.098;2024-03-08T17:49:43;68.00;;;55.75;;
39082;SDS011;24834;44.444;26.098;2024-03-08T17:55:46;73.75;;;58.75;;
39082;SDS011;24834;44.444;26.098;2024-03-08T18:01:54;66.50;;;52.75;;
39082;SDS011;24834;44.444;26.098;2024-03-08T18:07:59;66.00;;;51.50;;
39082;SDS011;24834;44.444;26.098;2024-03-08T18:14:03;66.75;;;55.00;;
39082;SDS011;24834;44.444;26.098;2024-03-08T18:20:06;71.00;;;57.00;;
39082;SDS011;24834;44.444;26.098;2024-03-08T18:26:16;61.00;;;51.75;;
39082;SDS011;24834;44.444;26.098;2024-03-08T18:32:20;66.75;;;51.50;;
39082;SDS011;24834;44.444;26.098;2024-03-08T18:38:24;68.00;;;52.25;;
39082;SDS011;24834;44.444;26.098;2024-03-08T18:44:30;65.75;;;51.00;;
39082;SDS011;24834;44.444;26.098;2024-03-08T18:50:33;65.25;;;54.00;;
39082;SDS011;24834;44.444;26.098;2024-03-08T18:56:36;73.00;;;58.25;;
39082;SDS011;24834;44.444;26.098;2024-03-08T19:02:41;63.50;;;50.00;;
39082;SDS011;24834;44.444;26.098;2024-03-08T19:08:44;61.75;;;50.75;;
39082;SDS011;24834;44.444;26.098;2024-03-08T19:14:49;66.25;;;54.50;;
39082;SDS011;24834;44.444;26.098;2024-03-08T19:20:53;70.00;;;56.75;;
39082;SDS011;24834;44.444;26.098;2024-03-08T19:26:58;63.00;;;50.25;;
39082;SDS011;24834;44.444;26.098;2024-03-08T19:33:04;73.25;;;57.00;;
39082;SDS011;24834;44.444;26.098;2024-03-08T19:39:10;68.00;;;53.75;;
39082;SDS011;24834;44.444;26.098;2024-03-08T19:45:13;68.75;;;57.50;;
39082;SDS011;24834;44.444;26.098;2024-03-08T19:51:18;66.25;;;53.75;;
39082;SDS011;24834;44.444;26.098;2024-03-08T19:57:20;71.50;;;57.25;;
39082;SDS011;24834;44.444;26.098;2024-03-08T20:03:22;71.75;;;56.50;;
39082;SDS011;24834;44.444;26.098;2024-03-08T20:09:25;73.00;;;58.75;;
39082;SDS011;24834;44.444;26.098;2024-03-08T20:15:29;75.25;;;59.50;;
39082;SDS011;24834;44.444;26.098;2024-03-08T20:21:35;75.75;;;59.25;;
39082;SDS011;24834;44.444;26.098;2024-03-08T20:27:37;71.25;;;57.75;;
39082;SDS011;24834;44.444;26.098;2024-03-08T20:33:46;72.00;;;58.50;;
39082;SDS011;24834;44.444;26.098;2024-03-08T20:39:48;75.25;;;58.25;;
39082;SDS011;24834;44.444;26.098;2024-03-08T20:45:50;74.25;;;59.75;;
39082;SDS011;24834;44.444;26.098;2024-03-08T20:51:54;72.00;;;57.50;;
39082;SDS011;24834;44.444;26.098;2024-03-08T20:57:57;80.75;;;60.75;;
39082;SDS011;24834;44.444;26.098;2024-03-08T21:03:59;75.50;;;60.50;;
39082;SDS011;24834;44.444;26.098;2024-03-08T21:10:02;81.25;;;63.00;;
39082;SDS011;24834;44.444;26.098;2024-03-08T21:16:04;77.50;;;59.50;;
39082;SDS011;24834;44.444;26.098;2024-03-08T21:22:11;65.50;;;53.50;;
39082;SDS011;24834;44.444;26.098;2024-03-08T21:28:13;79.25;;;61.25;;
39082;SDS011;24834;44.444;26.098;2024-03-08T21:34:17;73.75;;;57.75;;
39082;SDS011;24834;44.444;26.098;2024-03-08T21:40:19;73.75;;;59.50;;
39082;SDS011;24834;44.444;26.098;2024-03-08T21:46:29;73.50;;;59.50;;
39082;SDS011;24834;44.444;26.098;2024-03-08T21:52:31;70.75;;;57.75;;
39082;SDS011;24834;44.444;26.098;2024-03-08T21:58:33;75.25;;;56.25;;
39082;SDS011;24834;44.444;26.098;2024-03-08T22:04:36;74.00;;;57.33;;
39082;SDS011;24834;44.444;26.098;2024-03-08T22:10:40;72.75;;;56.50;;
39082;SDS011;24834;44.444;26.098;2024-03-08T22:16:43;71.00;;;58.50;;
39082;SDS011;24834;44.444;26.098;2024-03-08T22:22:47;77.25;;;59.00;;
39082;SDS011;24834;44.444;26.098;2024-03-08T22:28:51;76.00;;;59.75;;
39082;SDS011;24834;44.444;26.098;2024-03-08T22:34:55;75.75;;;60.00;;
39082;SDS011;24834;44.444;26.098;2024-03-08T22:40:59;62.25;;;54.00;;
39082;SDS011;24834;44.444;26.098;2024-03-08T22:47:01;70.50;;;55.50;;
39082;SDS011;24834;44.444;26.098;2024-03-08T22:53:05;78.67;;;61.00;;
39082;SDS011;24834;44.444;26.098;2024-03-08T22:59:09;58.25;;;49.25;;
39082;SDS011;24834;44.444;26.098;2024-03-08T23:05:13;63.75;;;46.25;;
39082;SDS011;24834;44.444;26.098;2024-03-08T23:11:17;69.25;;;52.00;;
39082;SDS011;24834;44.444;26.098;2024-03-08T23:17:20;73.33;;;55.67;;
39082;SDS011;24834;44.444;26.098;2024-03-08T23:23:22;70.75;;;57.50;;
39082;SDS011;24834;44.444;26.098;2024-03-08T23:29:25;70.75;;;57.00;;
39082;SDS011;24834;44.444;26.098;2024-03-08T23:35:27;73.25;;;61.00;;
39082;SDS011;24834;44.444;26.098;2024-03-08T23:41:30;71.00;;;57.50;;
39082;SDS011;24834;44.444;26.098;2024-03-08T23:47:32;77.75;;;60.25;;
39082;SDS011;24834;44.444;26.098;2024-03-08T23:53:34;73.50;;;57.50;;
39082;SDS011;24834;44.444;26.098;2024-03-08T23:59:37;70.67;;;56.00;;
